VK4VP-5 Buderim QLD AU current weather conditions

sailwx.info

Wind from 008 at 2 knots gusting 8

Air temperature 20.6° C
Dewpoint 19.2° C

Last reported at 2014-Oct-31 19:40 UTC.
Time now 2014-Nov-01 09:07 UTC

Location: S 26°42' E 153°05'.
View on Google Maps.

See reports from other nearby stations

  
Tides and Currents Weather Stations Pressure Air Temp Water Temp Dewpoint Dewpoint Depression Visibility Wind Speed Wind Dir Waves Ship Positions
date/time (UTC)wind fromknots sea level pressurealtimeterstation pressurevisibilityair tempwater tempwave heightnotes
2014-Oct-31 19:40 008 2 gusting 8 20.6
2014-Oct-31 19:30 010 1 gusting 6 20.0
2014-Oct-31 19:20 011 0 gusting 5 20.6
2014-Oct-31 19:10 010 20.6
2014-Oct-31 19:00 012 0 gusting 7 20.6
2014-Oct-31 18:50 012 0 gusting 6 20.6
2014-Oct-31 18:42 012 20.6
2014-Oct-31 18:40 012 20.6
2014-Oct-31 18:30 012 0 gusting 1 20.6
2014-Oct-31 18:20 012 20.6
2014-Oct-31 18:10 012 20.6
2014-Oct-31 18:00 014 1 gusting 8 20.6
2014-Oct-31 17:50 015 0 gusting 3 20.6
2014-Oct-31 17:40 016 1 gusting 7 20.6
2014-Oct-31 17:30 015 1 gusting 6 20.6
2014-Oct-31 17:20 023 1 gusting 6 20.6
2014-Oct-31 17:10 006 2 gusting 8 20.6
2014-Oct-31 17:00 004 3 gusting 9 20.6
2014-Oct-31 16:50 351 3 gusting 8 21.1
2014-Oct-31 16:40 335 4 gusting 11 21.1
2014-Oct-31 16:30 352 2 gusting 8 21.1
2014-Oct-31 16:20 001 3 gusting 7 21.1
2014-Oct-31 16:10 348 3 gusting 8 21.1
2014-Oct-31 16:00 007 1 gusting 7 21.1
2014-Oct-31 15:50 002 3 gusting 8 21.1
2014-Oct-31 15:40 355 2 gusting 6 21.1
2014-Oct-31 15:30 350 3 gusting 10 21.1
2014-Oct-31 15:20 344 4 gusting 8 21.1
2014-Oct-31 15:10 346 3 gusting 9 21.1
2014-Oct-31 15:00 345 4 gusting 10 21.7
2014-Oct-31 14:50 336 3 gusting 8 21.1
2014-Oct-31 14:40 348 4 gusting 8 21.1
2014-Oct-31 14:30 344 2 gusting 8 21.1
2014-Oct-31 14:20 344 2 gusting 7 21.7
2014-Oct-31 14:10 349 3 gusting 7 21.7
2014-Oct-31 14:00 354 2 gusting 7 21.7
2014-Oct-31 13:50 007 1 gusting 7 21.7
2014-Oct-31 13:40 007 2 gusting 8 21.7
2014-Oct-31 13:30 005 2 gusting 6 21.7
2014-Oct-31 13:20 008 3 gusting 8 21.7
2014-Oct-31 13:10 349 3 gusting 9 21.7
2014-Oct-31 13:00 005 3 gusting 9 21.7
2014-Oct-31 12:50 002 3 gusting 10 21.7
2014-Oct-31 12:40 356 2 gusting 8 21.7
2014-Oct-31 12:30 358 2 gusting 7 21.7
2014-Oct-31 12:20 001 1 gusting 6 22.2
2014-Oct-31 12:10 001 2 gusting 5 22.2
2014-Oct-31 12:00 001 1 gusting 7 22.2
2014-Oct-31 11:50 359 1 gusting 7 22.2
2014-Oct-31 11:40 001 2 gusting 7 22.2
2014-Oct-31 11:30 004 0 gusting 6 22.2
2014-Oct-31 11:20 357 1 gusting 8 22.2
2014-Oct-31 11:10 005 2 gusting 8 22.8
2014-Oct-31 11:00 013 0 gusting 6 22.8
2014-Oct-31 10:50 016 2 gusting 8 22.8
2014-Oct-31 10:40 009 6 gusting 15 23.3
2014-Oct-31 10:30 014 6 gusting 12 23.3
2014-Oct-31 10:20 011 6 gusting 12 23.3
2014-Oct-31 10:10 016 6 gusting 12 23.3
2014-Oct-31 10:00 009 5 gusting 9 23.3
2014-Oct-31 09:50 017 4 gusting 9 23.3
2014-Oct-31 09:40 020 5 gusting 9 23.3
2014-Oct-31 09:30 019 5 gusting 9 23.3
2014-Oct-31 09:20 020 4 gusting 10 23.3
2014-Oct-31 09:10 026 5 gusting 10 23.3
2014-Oct-31 09:00 022 5 gusting 11 23.3
2014-Oct-31 08:50 029 6 gusting 11 23.3
2014-Oct-31 08:40 020 7 gusting 16 23.3
2014-Oct-31 08:30 029 5 gusting 10 23.3
2014-Oct-31 08:20 024 6 gusting 12 23.3
2014-Oct-31 08:10 030 6 gusting 11 23.3
2014-Oct-31 08:00 020 7 gusting 14 23.3
2014-Oct-31 07:50 029 5 gusting 11 23.9
2014-Oct-31 07:40 018 6 gusting 19 23.9
2014-Oct-31 07:30 027 5 gusting 12 23.9
2014-Oct-31 07:20 022 8 gusting 14 23.9
2014-Oct-31 07:10 021 8 gusting 18 24.4
2014-Oct-31 07:00 027 7 gusting 18 24.4
2014-Oct-31 06:50 012 8 gusting 16 24.4
2014-Oct-31 06:40 027 6 gusting 13 24.4
2014-Oct-31 06:30 027 6 gusting 16 24.4
2014-Oct-31 06:20 029 6 gusting 14 25.0
2014-Oct-31 06:10 029 8 gusting 17 25.0
2014-Oct-31 06:00 038 7 gusting 16 25.0
2014-Oct-31 05:50 032 7 gusting 14 25.0
2014-Oct-31 05:40 032 8 gusting 16 25.0
2014-Oct-31 05:30 030 8 gusting 15 25.0
2014-Oct-31 05:20 039 7 gusting 16 25.0
2014-Oct-31 05:10 039 8 gusting 15 25.0
2014-Oct-31 05:00 036 7 gusting 15 25.6
2014-Oct-31 04:50 031 9 gusting 18 25.6
2014-Oct-31 04:40 025 9 gusting 18 25.6
2014-Oct-31 04:30 027 8 gusting 18 25.6
2014-Oct-31 04:20 035 8 gusting 17 25.0
2014-Oct-31 04:10 039 9 gusting 18 25.6
2014-Oct-31 04:00 032 6 gusting 14 26.1
2014-Oct-31 03:50 047 6 gusting 16 25.6
2014-Oct-31 03:40 031 6 gusting 14 25.6
2014-Oct-31 03:30 025 6 gusting 13 26.1
2014-Oct-31 03:20 029 7 gusting 19 25.6
2014-Oct-31 03:10 032 6 gusting 13 26.1
2014-Oct-31 03:00 032 6 gusting 15 26.1
2014-Oct-31 02:50 028 5 gusting 12 26.7
2014-Oct-31 02:40 029 6 gusting 14 26.7
2014-Oct-31 02:30 032 6 gusting 16 26.7
2014-Oct-31 02:20 028 6 gusting 16 26.7
2014-Oct-31 02:10 019 8 gusting 15 26.1
2014-Oct-31 02:00 023 6 gusting 11 26.7
2014-Oct-31 01:50 018 6 gusting 15 26.7
2014-Oct-31 01:40 025 5 gusting 13 26.7
2014-Oct-31 01:30 016 6 gusting 10 26.7
2014-Oct-31 01:20 043 5 gusting 12 26.1
2014-Oct-31 01:10 051 3 gusting 11 26.1
2014-Oct-31 01:00 058 5 gusting 12 26.1
2014-Oct-31 00:50 038 6 gusting 11 26.1
2014-Oct-31 00:40 037 4 gusting 9 25.6
2014-Oct-31 00:30 056 4 gusting 10 25.6
2014-Oct-31 00:20 037 4 gusting 10 25.6
2014-Oct-31 00:11 034 1 gusting 7 26.1
2014-Oct-31 00:00 040 4 gusting 10 26.1
2014-Oct-30 23:56 044 4 gusting 10 26.7
2014-Oct-30 23:50 042 3 gusting 8 26.1
2014-Oct-30 23:40 028 3 gusting 8 26.1
2014-Oct-30 23:30 023 2 gusting 8 26.1
2014-Oct-30 23:20 019 2 gusting 8 25.0
2014-Oct-30 23:10 010 2 gusting 8 25.6
2014-Oct-30 23:00 003 1 gusting 6 25.0
2014-Oct-30 22:50 355 2 gusting 6 25.0
2014-Oct-30 22:40 348 3 gusting 8 25.0
2014-Oct-30 22:30 341 1 gusting 6 25.0
2014-Oct-30 22:20 341 1 gusting 6 25.0
2014-Oct-30 22:10 343 2 gusting 6 24.4
2014-Oct-30 22:00 350 2 gusting 7 23.9
2014-Oct-30 21:50 008 3 gusting 7 23.9
2014-Oct-30 21:40 012 0 gusting 6 23.9
2014-Oct-30 21:30 012 0 gusting 3 23.3
2014-Oct-30 21:20 012 1 gusting 3 23.3
2014-Oct-30 21:10 012 0 gusting 5 23.3
2014-Oct-30 21:00 004 0 gusting 3 23.3
2014-Oct-30 20:50 004 0 gusting 2 22.8
2014-Oct-30 20:40 004 0 gusting 3 22.8
2014-Oct-30 20:30 004 0 gusting 3 22.2
2014-Oct-30 20:20 339 22.2
2014-Oct-30 20:10 067 21.7
2014-Oct-30 20:00 21.7
2014-Oct-30 19:50 21.1
2014-Oct-30 19:40 086 21.1
2014-Oct-30 19:30 355 21.1
2014-Oct-30 19:20 040 20.6
2014-Oct-30 19:10 046 20.6
2014-Oct-30 19:00 040 21.1
2014-Oct-30 18:50 21.1
2014-Oct-30 18:40 21.1
2014-Oct-30 18:30 040 21.7
2014-Oct-30 18:20 21.7
2014-Oct-30 18:10 21.7
2014-Oct-30 18:00 22.2
2014-Oct-30 17:47 22.2
2014-Oct-30 17:37 22.2
2014-Oct-30 17:27 040 22.2
2014-Oct-30 17:17 040 22.2
2014-Oct-30 17:07 041 22.2
2014-Oct-30 16:57 040 22.2
2014-Oct-30 16:47 041 22.2
2014-Oct-30 16:37 22.2
2014-Oct-30 16:27 041 22.2
2014-Oct-30 16:17 041 22.2
2014-Oct-30 16:07 22.2
2014-Oct-30 15:57 22.2
2014-Oct-30 15:47 22.2
2014-Oct-30 15:37 22.2
2014-Oct-30 15:27 040 22.2
2014-Oct-30 15:17 040 22.2
2014-Oct-30 15:07 040 22.2
2014-Oct-30 14:57 040 22.2
2014-Oct-30 14:47 040 22.2
2014-Oct-30 14:37 040 22.2
2014-Oct-30 14:27 040 22.2
2014-Oct-30 14:17 040 22.2
2014-Oct-30 14:07 040 22.2
2014-Oct-30 13:57 040 22.2
2014-Oct-30 13:47 040 22.2
2014-Oct-30 13:37 040 22.2
2014-Oct-30 13:27 041 22.2
2014-Oct-30 13:17 040 22.8
2014-Oct-30 13:07 040 22.8
2014-Oct-30 12:57 22.8
2014-Oct-30 12:47 040 22.8
2014-Oct-30 12:37 040 22.8
2014-Oct-30 12:27 041 22.8
2014-Oct-30 12:17 040 0 gusting 3 22.8
2014-Oct-30 12:07 041 22.8
2014-Oct-30 11:57 041 1 gusting 6 22.8
2014-Oct-30 11:47 041 0 gusting 5 22.8
2014-Oct-30 11:37 041 2 gusting 8 22.8
2014-Oct-30 11:27 041 0 gusting 6 22.8
2014-Oct-30 11:17 041 1 gusting 7 22.8
2014-Oct-30 11:07 041 0 gusting 5 22.8
2014-Oct-30 10:57 041 1 gusting 6 22.8
2014-Oct-30 10:47 041 2 gusting 6 22.8
2014-Oct-30 10:37 042 2 gusting 8 22.8
2014-Oct-30 10:27 045 2 gusting 7 22.8
2014-Oct-30 10:17 048 2 gusting 8 22.8
2014-Oct-30 10:07 050 1 gusting 6 22.8
2014-Oct-30 09:57 046 2 gusting 7 22.8
2014-Oct-30 09:47 046 1 gusting 6 23.3
2014-Oct-30 09:37 047 0 gusting 6 22.8
2014-Oct-30 09:27 047 1 gusting 8 22.8
2014-Oct-30 09:17 046 1 gusting 6 22.8
2014-Oct-30 09:07 046 0 gusting 6 22.8